Time;durP1;ratioP1;P1;durP2;ratioP2;P2;SDS_P1;SDS_P2;PMS_P1;PMS_P2;Temp;Humidity;BMP_temperature;BMP_pressure;BME280_temperature;BME280_humidity;BME280_pressure;Samples;Min_cycle;Max_cycle;Signal;HPM_P1;HPM_P2
2023/12/30 00:02:18;;;;;;;7.20;2.10;;;;;;;5.91;86.13;99850.45;108855;1255;137918;-67
2023/12/30 00:04:44;;;;;;;6.70;2.80;;;;;;;5.91;86.14;99853.63;109024;1255;67263;-68
2023/12/30 00:07:11;;;;;;;7.40;3.20;;;;;;;5.93;86.10;99856.62;108845;1256;138278;-67
2023/12/30 00:09:38;;;;;;;6.60;3.10;;;;;;;5.94;86.03;99858.56;108970;1255;59447;-68
2023/12/30 00:12:04;;;;;;;5.70;2.40;;;;;;;5.96;85.98;99861.63;106472;1257;61380;-61
2023/12/30 00:14:31;;;;;;;5.40;2.30;;;;;;;5.98;86.09;99850.70;108886;1255;137311;-61
2023/12/30 00:16:58;;;;;;;5.50;2.50;;;;;;;6.00;86.07;99846.94;108962;1255;66033;-62
2023/12/30 00:19:25;;;;;;;5.10;2.10;;;;;;;6.03;86.13;99843.71;108519;1256;138204;-61
2023/12/30 00:21:52;;;;;;;4.60;2.10;;;;;;;6.07;86.13;99843.66;108935;1255;58446;-62
2023/12/30 00:24:19;;;;;;;5.40;2.10;;;;;;;6.12;86.09;99842.39;108897;1255;138939;-61
2023/12/30 00:26:45;;;;;;;4.60;2.10;;;;;;;6.15;86.11;99847.36;108995;1255;74910;-61
2023/12/30 00:29:12;;;;;;;4.10;2.30;;;;;;;6.20;86.14;99850.13;108988;1255;66646;-62
2023/12/30 00:31:39;;;;;;;5.80;2.40;;;;;;;6.25;86.07;99848.86;107793;1256;139939;-61
2023/12/30 00:34:05;;;;;;;7.80;2.30;;;;;;;6.29;86.07;99855.58;105172;1259;60566;-61
2023/12/30 00:36:32;;;;;;;5.50;2.20;;;;;;;6.33;85.99;99855.35;104957;1257;137855;-61
2023/12/30 00:38:59;;;;;;;4.40;2.30;;;;;;;6.36;85.90;99854.75;105073;1255;74585;-61
2023/12/30 00:41:26;;;;;;;6.90;2.40;;;;;;;6.38;85.88;99860.04;105031;1257;69219;-61
2023/12/30 00:43:53;;;;;;;3.50;2.20;;;;;;;6.39;85.75;99859.52;108794;1257;137684;-60
2023/12/30 00:46:21;;;;;;;4.60;2.10;;;;;;;6.39;85.78;99854.30;108997;1255;60607;-61
2023/12/30 00:48:48;;;;;;;5.70;2.20;;;;;;;6.40;85.72;99849.45;108903;1255;137895;-61
2023/12/30 00:51:14;;;;;;;8.70;2.70;;;;;;;6.42;85.61;99848.83;108966;1255;75449;-66
2023/12/30 00:53:41;;;;;;;4.30;2.70;;;;;;;6.44;85.56;99842.73;108779;1256;67927;-67
2023/12/30 00:56:08;;;;;;;5.80;2.10;;;;;;;6.47;85.45;99839.17;108850;1255;137736;-66
2023/12/30 00:58:35;;;;;;;5.00;2.10;;;;;;;6.50;85.45;99842.38;108971;1256;58919;-66
2023/12/30 01:01:01;;;;;;;7.40;2.80;;;;;;;6.52;85.35;99840.70;108508;1256;137641;-61
2023/12/30 01:03:28;;;;;;;7.20;2.30;;;;;;;6.55;85.30;99846.70;105001;1259;73302;-61
2023/12/30 01:05:56;;;;;;;5.30;3.00;;;;;;;6.57;85.25;99844.13;105028;1259;67462;-61
2023/12/30 01:08:22;;;;;;;6.80;2.50;;;;;;;6.59;85.17;99845.77;104952;1259;137943;-62
2023/12/30 01:10:49;;;;;;;8.40;2.40;;;;;;;6.60;85.16;99849.63;105059;1259;60365;-62
2023/12/30 01:13:16;;;;;;;8.10;2.50;;;;;;;6.61;85.15;99854.17;104986;1261;138068;-62
2023/12/30 01:15:43;;;;;;;5.20;2.80;;;;;;;6.62;85.15;99852.46;105096;1255;75025;-62
2023/12/30 01:18:11;;;;;;;4.70;2.50;;;;;;;6.63;85.20;99850.92;104924;1256;137993;-62
2023/12/30 01:20:38;;;;;;;6.50;2.70;;;;;;;6.62;85.13;99847.41;105092;1259;73971;-61
2023/12/30 01:23:06;;;;;;;5.90;3.10;;;;;;;6.62;85.16;99848.11;105129;1259;60361;-61
2023/12/30 01:25:32;;;;;;;4.80;2.60;;;;;;;6.63;85.12;99844.48;106592;1257;137994;-62
2023/12/30 01:27:59;;;;;;;5.10;2.40;;;;;;;6.62;85.14;99848.83;105210;1257;71970;-62
2023/12/30 01:30:26;;;;;;;5.50;2.50;;;;;;;6.63;85.10;99843.94;104962;1258;139152;-63
2023/12/30 01:32:52;;;;;;;4.70;2.70;;;;;;;6.62;85.15;99833.65;105101;1256;72094;-62
2023/12/30 01:35:19;;;;;;;12.90;7.10;;;;;;;6.62;85.18;99841.31;105062;1255;60514;-62
2023/12/30 01:37:46;;;;;;;5.80;2.40;;;;;;;6.61;85.11;99839.72;104800;1256;138582;-62
2023/12/30 01:40:13;;;;;;;8.50;2.60;;;;;;;6.59;85.07;99844.20;105062;1259;74366;-60
2023/12/30 01:42:40;;;;;;;6.60;2.70;;;;;;;6.57;85.07;99841.02;104982;1258;138355;-62
2023/12/30 01:45:07;;;;;;;6.10;2.70;;;;;;;6.55;85.15;99835.04;105072;1259;72196;-63
2023/12/30 01:47:35;;;;;;;6.30;2.60;;;;;;;6.56;85.23;99834.00;108950;1255;58459;-61
2023/12/30 01:50:04;;;;;;;8.10;2.40;;;;;;;6.57;85.32;99831.77;108753;1256;138339;-62
2023/12/30 01:52:32;;;;;;;3.50;2.30;;;;;;;6.60;85.35;99837.44;108987;1255;72583;-62
2023/12/30 01:54:58;;;;;;;6.80;3.20;;;;;;;6.61;85.36;99843.57;108689;1259;138228;-62
2023/12/30 01:57:25;;;;;;;4.90;2.60;;;;;;;6.64;85.42;99840.50;108956;1256;72169;-62
2023/12/30 01:59:52;;;;;;;5.40;3.20;;;;;;;6.67;85.38;99839.00;108807;1255;59056;-62
2023/12/30 02:02:21;;;;;;;6.40;2.50;;;;;;;6.71;85.39;99840.66;108852;1255;138184;-63
2023/12/30 02:04:47;;;;;;;6.10;2.50;;;;;;;6.75;85.37;99849.84;108965;1257;73514;-63
2023/12/30 02:07:14;;;;;;;3.50;2.60;;;;;;;6.77;85.36;99848.50;108645;1255;138558;-62
2023/12/30 02:09:41;;;;;;;6.00;2.60;;;;;;;6.81;85.32;99849.83;108968;1255;72421;-62
2023/12/30 02:12:07;;;;;;;6.30;2.40;;;;;;;6.83;85.31;99841.84;108720;1255;138918;-62
2023/12/30 02:14:35;;;;;;;6.70;2.50;;;;;;;6.83;85.19;99849.33;108803;1255;60373;-63
2023/12/30 02:17:02;;;;;;;7.00;2.90;;;;;;;6.81;85.20;99854.89;108980;1256;73686;-62
2023/12/30 02:19:28;;;;;;;9.10;5.90;;;;;;;6.82;85.17;99857.00;106569;1262;139916;-62
2023/12/30 02:21:55;;;;;;;7.90;3.50;;;;;;;6.83;85.27;99851.61;104995;1256;71564;-61
2023/12/30 02:24:22;;;;;;;5.90;2.60;;;;;;;6.85;85.22;99848.88;105011;1257;139902;-62
2023/12/30 02:26:48;;;;;;;9.10;3.80;;;;;;;6.87;85.21;99845.80;105093;1259;60440;-67
2023/12/30 02:29:15;;;;;;;5.50;2.80;;;;;;;6.87;85.11;99838.45;105093;1255;72784;-67
2023/12/30 02:31:48;;;;;;;10.40;4.50;;;;;;;6.88;85.06;99839.02;104994;1259;140300;-67
2023/12/30 02:34:16;;;;;;;7.40;3.00;;;;;;;6.89;84.97;99829.61;104960;1257;73679;-67
2023/12/30 02:36:44;;;;;;;8.40;2.30;;;;;;;6.90;84.87;99824.77;104914;1256;139532;-67
2023/12/30 02:39:11;;;;;;;8.40;2.30;;;;;;;6.93;84.76;99832.70;104902;1256;60615;-68
2023/12/30 02:41:38;;;;;;;5.90;2.50;;;;;;;6.96;84.73;99825.27;108780;1256;74555;-67
2023/12/30 02:44:04;;;;;;;6.00;2.60;;;;;;;6.99;84.64;99822.89;108873;1256;139942;-66
2023/12/30 02:46:31;;;;;;;6.60;2.70;;;;;;;7.02;84.56;99821.91;108797;1256;72695;-66
2023/12/30 02:49:02;;;;;;;7.00;2.40;;;;;;;7.05;84.51;99822.16;108863;1270;138197;-67
2023/12/30 02:51:29;;;;;;;4.80;2.50;;;;;;;7.08;84.49;99819.09;108974;1257;61140;-66
2023/12/30 02:53:56;;;;;;;5.90;2.80;;;;;;;7.08;84.38;99818.41;108968;1255;73943;-66
2023/12/30 02:56:24;;;;;;;5.10;2.40;;;;;;;7.10;84.36;99821.92;108866;1255;138752;-66
2023/12/30 02:58:56;;;;;;;6.90;2.90;;;;;;;7.12;84.31;99817.44;108962;1255;72689;-66
2023/12/30 03:01:27;;;;;;;5.30;2.30;;;;;;;7.14;84.43;99812.43;108773;1256;138570;-67
2023/12/30 03:03:54;;;;;;;5.50;2.30;;;;;;;7.18;84.43;99809.92;108943;1256;60538;-67
2023/12/30 03:06:21;;;;;;;4.70;2.60;;;;;;;7.22;84.37;99814.89;108834;1256;138617;-67
2023/12/30 03:08:49;;;;;;;3.80;2.00;;;;;;;7.22;84.23;99814.02;108815;1256;64409;-67
2023/12/30 03:11:15;;;;;;;3.10;1.70;;;;;;;7.20;84.11;99812.23;108958;1257;72787;-67
2023/12/30 03:13:42;;;;;;;3.60;1.50;;;;;;;7.21;84.10;99811.89;108854;1256;138032;-67
2023/12/30 03:16:11;;;;;;;2.70;1.40;;;;;;;7.24;84.06;99816.31;109004;1255;58706;-67
2023/12/30 03:18:38;;;;;;;2.50;1.80;;;;;;;7.26;84.02;99813.77;108842;1259;138180;-67
2023/12/30 03:21:07;;;;;;;5.40;1.70;;;;;;;7.28;83.94;99811.16;107844;1259;66440;-61
2023/12/30 03:23:34;;;;;;;7.20;1.70;;;;;;;7.30;83.88;99814.21;104994;1257;72460;-61
2023/12/30 03:26:02;;;;;;;3.40;1.50;;;;;;;7.31;83.77;99818.77;108796;1254;138319;-62
2023/12/30 03:28:28;;;;;;;3.80;1.70;;;;;;;7.30;83.65;99813.51;108972;1255;59952;-62
2023/12/30 03:30:55;;;;;;;4.40;1.50;;;;;;;7.27;83.41;99810.64;108783;1257;138162;-61
2023/12/30 03:33:23;;;;;;;5.10;1.70;;;;;;;7.21;83.14;99808.59;108972;1256;65610;-61
2023/12/30 03:35:50;;;;;;;4.10;1.60;;;;;;;7.16;83.03;99804.27;105581;1259;72144;-61
2023/12/30 03:38:17;;;;;;;2.50;1.30;;;;;;;7.11;82.97;99801.73;105021;1259;138435;-61
2023/12/30 03:40:43;;;;;;;6.70;1.50;;;;;;;7.06;82.81;99800.90;108925;1256;61020;-67
2023/12/30 03:43:10;;;;;;;3.00;1.40;;;;;;;7.00;82.79;99807.92;108843;1256;137450;-68
2023/12/30 03:45:37;;;;;;;3.80;1.80;;;;;;;6.97;82.90;99818.83;108940;1254;65490;-68
2023/12/30 03:48:04;;;;;;;5.60;1.70;;;;;;;6.93;82.74;99828.67;108810;1256;71655;-68
2023/12/30 03:50:30;;;;;;;5.20;1.80;;;;;;;6.89;82.78;99826.14;108875;1256;137715;-68
2023/12/30 03:52:57;;;;;;;4.30;1.80;;;;;;;6.85;82.76;99821.50;108906;1256;59364;-66
2023/12/30 03:55:24;;;;;;;7.00;1.80;;;;;;;6.81;82.53;99809.52;108727;1255;138178;-68
2023/12/30 03:57:53;;;;;;;5.00;1.70;;;;;;;6.75;82.36;99812.35;108863;1256;66766;-67
2023/12/30 04:00:20;;;;;;;7.00;2.00;;;;;;;6.68;82.30;99814.44;108824;1256;138139;-67
2023/12/30 04:02:47;;;;;;;6.20;1.70;;;;;;;6.61;82.25;99817.06;108811;1255;58255;-67
2023/12/30 04:05:13;;;;;;;8.50;2.00;;;;;;;6.56;82.18;99806.47;108825;1255;60037;-66
2023/12/30 04:07:40;;;;;;;6.70;2.00;;;;;;;6.50;82.18;99811.37;108841;1255;138548;-66
2023/12/30 04:10:07;;;;;;;6.50;1.80;;;;;;;6.45;82.12;99817.14;109005;1255;66313;-66
2023/12/30 04:12:35;;;;;;;9.00;2.50;;;;;;;6.38;82.18;99822.03;108829;1256;139806;-67
2023/12/30 04:15:02;;;;;;;7.00;2.10;;;;;;;6.30;82.07;99819.38;108968;1256;58269;-66
2023/12/30 04:17:29;;;;;;;5.30;1.60;;;;;;;6.25;82.03;99823.60;108951;1256;61365;-67
2023/12/30 04:19:55;;;;;;;6.00;2.10;;;;;;;6.18;81.96;99818.88;108874;1255;137825;-67
2023/12/30 04:22:24;;;;;;;5.90;1.50;;;;;;;6.11;81.94;99826.33;108998;1256;65011;-67
2023/12/30 04:24:51;;;;;;;8.10;2.00;;;;;;;6.04;81.98;99836.23;108867;1255;138290;-62
2023/12/30 04:27:18;;;;;;;6.50;1.80;;;;;;;5.98;81.99;99839.39;108801;1256;58238;-62
2023/12/30 04:29:44;;;;;;;4.70;1.50;;;;;;;5.90;82.01;99836.34;108907;1256;60312;-61
2023/12/30 04:32:11;;;;;;;5.00;1.50;;;;;;;5.82;81.96;99834.70;108730;1256;137980;-61
2023/12/30 04:34:38;;;;;;;4.80;1.70;;;;;;;5.75;82.08;99838.49;108913;1256;66879;-62
2023/12/30 04:37:05;;;;;;;5.20;1.40;;;;;;;5.70;82.25;99847.39;108792;1256;137962;-62
2023/12/30 04:39:32;;;;;;;4.30;1.30;;;;;;;5.66;82.33;99849.04;108892;1255;58344;-62
2023/12/30 04:41:59;;;;;;;4.20;1.30;;;;;;;5.65;82.55;99850.05;108940;1256;59884;-62
2023/12/30 04:44:26;;;;;;;5.00;1.50;;;;;;;5.68;82.68;99855.17;105138;1257;137866;-62
2023/12/30 04:46:52;;;;;;;5.20;1.50;;;;;;;5.72;82.88;99850.95;104970;1260;65609;-61
2023/12/30 04:49:22;;;;;;;3.30;1.50;;;;;;;5.78;83.08;99844.35;104930;1262;137932;-62
2023/12/30 04:51:48;;;;;;;4.70;1.40;;;;;;;5.83;83.08;99848.33;104899;1262;60751;-62
2023/12/30 04:54:15;;;;;;;5.70;1.30;;;;;;;5.85;83.06;99846.98;105001;1256;138285;-63
2023/12/30 04:56:42;;;;;;;3.40;1.60;;;;;;;5.88;83.15;99849.85;104942;1256;73275;-61
2023/12/30 04:59:09;;;;;;;5.10;1.60;;;;;;;5.88;83.07;99851.41;105020;1260;65839;-66
2023/12/30 05:01:36;;;;;;;4.80;1.70;;;;;;;5.81;82.83;99849.13;108716;1265;138187;-66
2023/12/30 05:04:03;;;;;;;7.10;2.10;;;;;;;5.69;82.73;99846.52;108913;1256;58350;-67
2023/12/30 05:06:30;;;;;;;5.60;2.30;;;;;;;5.57;82.66;99846.52;108686;1257;138521;-67
2023/12/30 05:08:58;;;;;;;5.40;2.30;;;;;;;5.47;82.60;99848.12;108891;1256;73481;-66
2023/12/30 05:11:25;;;;;;;6.30;2.70;;;;;;;5.39;82.74;99850.98;108855;1256;67295;-67
2023/12/30 05:13:51;;;;;;;4.30;1.90;;;;;;;5.33;82.96;99854.62;108750;1256;138170;-67
2023/12/30 05:16:18;;;;;;;3.40;1.80;;;;;;;5.29;83.10;99860.60;108915;1256;58234;-67
2023/12/30 05:18:45;;;;;;;4.50;1.80;;;;;;;5.29;83.26;99867.36;108763;1256;138754;-67
2023/12/30 05:21:15;;;;;;;6.60;2.20;;;;;;;5.31;83.47;99868.84;108892;1256;72304;-66
2023/12/30 05:23:42;;;;;;;2.70;1.80;;;;;;;5.34;83.55;99865.46;108882;1256;67244;-61
2023/12/30 05:26:12;;;;;;;5.30;2.00;;;;;;;5.42;83.76;99868.30;108670;1256;138255;-62
2023/12/30 05:28:38;;;;;;;8.60;1.90;;;;;;;5.51;83.83;99870.14;108266;1257;59241;-63
2023/12/30 05:31:05;;;;;;;3.00;1.70;;;;;;;5.56;83.86;99867.88;104863;1260;138178;-61
2023/12/30 05:33:32;;;;;;;3.90;1.70;;;;;;;5.62;83.87;99876.60;105150;1257;72098;-62
2023/12/30 05:35:58;;;;;;;9.20;2.10;;;;;;;5.70;84.03;99887.11;105042;1262;66756;-62
2023/12/30 05:38:25;;;;;;;5.00;2.30;;;;;;;5.80;84.09;99896.62;104874;1256;138082;-67
2023/12/30 05:40:52;;;;;;;5.20;1.80;;;;;;;5.88;84.02;99897.91;104872;1257;60539;-68
2023/12/30 05:43:19;;;;;;;6.00;2.50;;;;;;;5.96;84.04;99891.41;104997;1257;137776;-68
2023/12/30 05:45:46;;;;;;;7.60;2.30;;;;;;;6.01;83.80;99888.77;108788;1256;75622;-68
2023/12/30 05:48:13;;;;;;;7.00;1.90;;;;;;;5.99;83.59;99879.98;108762;1256;138329;-66
2023/12/30 05:50:40;;;;;;;10.90;2.50;;;;;;;5.95;83.22;99873.22;108914;1256;72258;-68
2023/12/30 05:53:06;;;;;;;7.20;2.10;;;;;;;5.87;83.11;99871.44;108796;1257;58501;-66
2023/12/30 05:55:33;;;;;;;6.60;2.20;;;;;;;5.76;82.84;99873.00;108832;1259;138515;-66
2023/12/30 05:58:00;;;;;;;6.60;2.30;;;;;;;5.64;82.71;99870.73;109104;1256;74703;-66
2023/12/30 06:00:27;;;;;;;7.30;2.30;;;;;;;5.52;82.70;99874.04;108921;1257;137952;-67
2023/12/30 06:02:54;;;;;;;9.60;2.90;;;;;;;5.42;82.73;99876.85;108992;1257;73430;-67
2023/12/30 06:05:20;;;;;;;5.70;2.10;;;;;;;5.32;82.73;99875.30;108971;1256;58141;-66
2023/12/30 06:07:47;;;;;;;7.20;2.30;;;;;;;5.23;82.80;99876.95;108885;1256;138474;-67
2023/12/30 06:10:14;;;;;;;7.50;2.40;;;;;;;5.15;82.78;99880.83;109057;1256;73975;-67
2023/12/30 06:12:40;;;;;;;5.60;2.00;;;;;;;5.06;82.88;99890.83;108884;1256;138645;-67
2023/12/30 06:15:08;;;;;;;6.90;2.30;;;;;;;5.05;83.24;99892.02;109004;1256;72796;-67
2023/12/30 06:17:34;;;;;;;13.10;2.50;;;;;;;5.14;83.68;99894.19;109010;1256;59567;-67
2023/12/30 06:20:01;;;;;;;8.50;2.10;;;;;;;5.22;83.80;99897.23;108958;1256;138757;-67
2023/12/30 06:22:28;;;;;;;6.60;2.00;;;;;;;5.24;83.66;99894.55;108888;1257;73998;-68
2023/12/30 06:24:54;;;;;;;7.80;2.20;;;;;;;5.26;83.59;99906.61;108870;1256;138604;-66
2023/12/30 06:27:21;;;;;;;8.10;2.30;;;;;;;5.33;83.78;99917.08;109046;1256;72732;-65
2023/12/30 06:29:49;;;;;;;7.10;2.40;;;;;;;5.45;84.03;99926.85;109098;1257;59977;-65
2023/12/30 06:32:15;;;;;;;8.60;2.40;;;;;;;5.55;83.93;99926.50;108976;1257;139079;-66
2023/12/30 06:34:42;;;;;;;5.90;2.20;;;;;;;5.62;83.72;99930.20;108921;1256;73928;-66
2023/12/30 06:37:09;;;;;;;9.00;2.40;;;;;;;5.64;83.40;99930.44;109006;1263;138672;-66
2023/12/30 06:39:36;;;;;;;9.30;2.50;;;;;;;5.64;83.33;99934.61;108929;1257;71378;-66
2023/12/30 06:42:03;;;;;;;11.00;2.20;;;;;;;5.69;83.50;99935.80;108846;1256;58410;-66
2023/12/30 06:44:30;;;;;;;11.30;2.70;;;;;;;5.75;83.45;99925.21;109001;1257;137931;-66
2023/12/30 06:46:56;;;;;;;8.50;2.90;;;;;;;5.81;83.44;99929.74;108962;1257;73025;-67
2023/12/30 06:49:24;;;;;;;8.40;2.40;;;;;;;5.88;83.43;99931.35;109017;1257;137956;-66
2023/12/30 06:51:50;;;;;;;11.90;2.70;;;;;;;5.96;83.52;99930.23;109144;1257;72850;-66
2023/12/30 06:54:17;;;;;;;7.80;2.20;;;;;;;6.06;83.52;99925.30;109044;1256;138228;-66
2023/12/30 06:56:44;;;;;;;8.80;2.50;;;;;;;6.08;83.27;99926.56;109170;1256;60301;-66
2023/12/30 06:59:12;;;;;;;7.70;2.30;;;;;;;6.04;82.87;99926.82;109161;1256;73192;-66
2023/12/30 07:01:40;;;;;;;4.10;2.20;;;;;;;5.98;82.71;99935.88;109108;1256;138235;-66
2023/12/30 07:04:07;;;;;;;9.20;2.40;;;;;;;5.92;82.62;99938.62;109183;1257;73741;-66
2023/12/30 07:06:33;;;;;;;8.90;2.10;;;;;;;5.88;82.61;99947.02;109018;1256;137276;-66
2023/12/30 07:09:00;;;;;;;7.10;2.20;;;;;;;5.83;82.70;99953.13;109031;1258;59610;-66
2023/12/30 07:11:27;;;;;;;14.50;3.90;;;;;;;5.79;82.64;99952.16;105219;1257;74537;-66
2023/12/30 07:13:53;;;;;;;10.60;3.80;;;;;;;5.78;82.78;99954.88;105050;1261;139033;-66
2023/12/30 07:16:20;;;;;;;16.80;5.70;;;;;;;5.76;82.77;99954.81;105247;1259;73587;-67
2023/12/30 07:18:47;;;;;;;13.50;5.00;;;;;;;5.70;82.76;99955.00;105036;1258;138467;-65
2023/12/30 07:21:13;;;;;;;18.90;9.40;;;;;;;5.65;82.72;99960.91;105164;1259;60355;-66
2023/12/30 07:23:40;;;;;;;17.60;7.70;;;;;;;5.59;82.91;99972.05;105159;1259;73137;-65
2023/12/30 07:26:07;;;;;;;17.00;7.10;;;;;;;5.57;82.98;99970.25;105196;1257;138425;-65
2023/12/30 07:28:33;;;;;;;18.10;10.20;;;;;;;5.58;83.13;99977.05;105243;1260;73277;-65
2023/12/30 07:31:00;;;;;;;18.60;8.10;;;;;;;5.58;83.15;99982.44;104994;1257;138384;-65
2023/12/30 07:33:27;;;;;;;14.10;7.60;;;;;;;5.55;83.12;99985.50;105141;1258;60578;-65
2023/12/30 07:35:54;;;;;;;17.70;8.60;;;;;;;5.52;83.09;99994.61;109150;1256;74533;-65
2023/12/30 07:38:21;;;;;;;12.50;6.30;;;;;;;5.53;83.19;100001.45;109062;1256;138664;-65
2023/12/30 07:40:47;;;;;;;11.20;5.20;;;;;;;5.60;83.49;100005.67;107253;1257;72648;-66
2023/12/30 07:43:15;;;;;;;13.10;4.90;;;;;;;5.69;83.44;100003.68;105075;1258;138640;-67
2023/12/30 07:45:42;;;;;;;15.70;4.60;;;;;;;5.76;83.43;100002.88;105221;1257;61562;-68
2023/12/30 07:48:08;;;;;;;13.40;5.30;;;;;;;5.83;83.37;100002.23;105119;1255;138724;-65
2023/12/30 07:50:35;;;;;;;11.10;4.00;;;;;;;5.89;83.35;100007.82;105192;1259;65739;-66
2023/12/30 07:53:02;;;;;;;12.50;3.50;;;;;;;5.92;83.13;100005.84;105172;1259;72421;-66
2023/12/30 07:55:29;;;;;;;11.30;3.20;;;;;;;5.93;83.02;100008.30;105052;1257;138144;-67
2023/12/30 07:57:56;;;;;;;8.50;3.00;;;;;;;5.94;82.90;100003.95;105060;1260;60454;-65
2023/12/30 08:00:22;;;;;;;15.20;3.00;;;;;;;5.92;82.82;100008.97;105131;1259;138700;-66
2023/12/30 08:02:49;;;;;;;10.60;2.80;;;;;;;5.91;82.77;100014.48;105242;1259;65554;-66
2023/12/30 08:05:17;;;;;;;7.40;3.40;;;;;;;5.93;82.84;100020.30;105300;1259;73649;-66
2023/12/30 08:07:44;;;;;;;10.20;2.60;;;;;;;5.96;82.86;100025.30;105071;1268;137289;-62
2023/12/30 08:10:11;;;;;;;8.80;3.30;;;;;;;6.00;82.97;100027.20;105386;1260;60441;-62
2023/12/30 08:12:38;;;;;;;13.60;3.40;;;;;;;6.05;82.91;100028.73;105185;1259;138143;-62
2023/12/30 08:15:05;;;;;;;7.80;2.90;;;;;;;6.08;82.93;100027.08;109108;1256;67071;-61
2023/12/30 08:17:32;;;;;;;10.00;3.10;;;;;;;6.12;82.80;100034.00;109102;1256;72806;-62
2023/12/30 08:19:59;;;;;;;10.40;2.30;;;;;;;6.18;82.84;100032.09;109080;1255;138249;-62
2023/12/30 08:22:25;;;;;;;16.40;3.00;;;;;;;6.28;82.92;100032.91;109199;1257;59975;-61
2023/12/30 08:24:53;;;;;;;6.60;3.00;;;;;;;6.36;82.75;100029.52;105517;1259;138682;-64
2023/12/30 08:27:20;;;;;;;9.90;3.10;;;;;;;6.44;82.63;100035.33;105108;1260;67564;-65
2023/12/30 08:29:46;;;;;;;8.90;3.10;;;;;;;6.51;82.47;100036.92;105226;1261;73985;-65
2023/12/30 08:32:13;;;;;;;14.30;3.10;;;;;;;6.56;82.41;100040.05;105110;1260;138153;-66
2023/12/30 08:34:40;;;;;;;12.80;3.90;;;;;;;6.60;82.27;100041.05;105300;1259;60448;-65
2023/12/30 08:37:09;;;;;;;10.30;3.70;;;;;;;6.65;82.20;100046.58;105101;1255;138223;-65
2023/12/30 08:39:37;;;;;;;11.70;3.70;;;;;;;6.69;82.13;100047.41;109148;1257;66425;-62
2023/12/30 08:42:04;;;;;;;12.70;4.00;;;;;;;6.72;82.03;100048.55;108985;1255;70869;-63
2023/12/30 08:44:31;;;;;;;9.20;3.50;;;;;;;6.75;81.93;100047.76;109033;1257;137784;-62
2023/12/30 08:46:57;;;;;;;9.10;3.30;;;;;;;6.78;81.78;100052.89;109204;1257;58814;-70
2023/12/30 08:49:24;;;;;;;8.60;2.80;;;;;;;6.79;81.70;100056.06;109115;1257;137519;-66
2023/12/30 08:51:51;;;;;;;9.90;3.00;;;;;;;6.80;81.56;100060.80;107530;1257;65097;-66
2023/12/30 08:54:17;;;;;;;7.40;3.70;;;;;;;6.82;81.57;100064.67;105107;1256;138414;-65
2023/12/30 08:56:44;;;;;;;13.20;2.80;;;;;;;6.84;81.51;100068.92;105208;1257;61230;-65
2023/12/30 08:59:11;;;;;;;7.40;3.20;;;;;;;6.81;81.44;100074.09;105215;1260;61060;-65
2023/12/30 09:01:37;;;;;;;8.40;3.00;;;;;;;6.81;81.48;100078.11;105052;1260;138147;-66
2023/12/30 09:04:04;;;;;;;7.70;2.60;;;;;;;6.84;81.49;100077.84;105243;1260;67005;-65
2023/12/30 09:06:31;;;;;;;6.70;2.90;;;;;;;6.87;81.51;100081.23;105066;1260;139496;-65
2023/12/30 09:08:58;;;;;;;6.30;3.40;;;;;;;6.91;81.46;100083.61;105193;1257;60574;-66
2023/12/30 09:11:24;;;;;;;6.90;3.00;;;;;;;6.95;81.70;100087.23;105112;1260;60973;-62
2023/12/30 09:13:54;;;;;;;6.10;2.90;;;;;;;6.98;81.59;100086.06;105178;1260;138088;-62
2023/12/30 09:16:20;;;;;;;12.50;6.60;;;;;;;6.99;81.66;100083.67;105255;1260;66836;-62
2023/12/30 09:18:47;;;;;;;7.60;3.10;;;;;;;7.03;81.60;100085.16;105027;1257;138553;-62
2023/12/30 09:21:14;;;;;;;4.90;2.60;;;;;;;7.04;81.52;100088.15;105274;1260;59173;-62
2023/12/30 09:23:40;;;;;;;4.70;2.30;;;;;;;7.05;81.47;100086.96;105317;1258;60981;-62
2023/12/30 09:26:07;;;;;;;5.80;3.30;;;;;;;7.07;81.57;100089.64;105215;1255;137372;-61
2023/12/30 09:28:34;;;;;;;6.60;4.00;;;;;;;7.10;81.57;100092.19;105220;1264;66786;-62
2023/12/30 09:31:01;;;;;;;13.30;11.90;;;;;;;7.13;81.45;100092.28;105139;1260;138493;-65
2023/12/30 09:33:28;;;;;;;16.70;13.30;;;;;;;7.12;81.19;100097.30;105266;1260;60558;-65
2023/12/30 09:35:55;;;;;;;29.80;18.60;;;;;;;7.13;81.20;100103.61;109146;1255;61234;-62
2023/12/30 09:38:23;;;;;;;7.40;6.00;;;;;;;7.13;81.10;100106.25;108869;1257;138719;-63
2023/12/30 09:40:50;;;;;;;6.50;4.30;;;;;;;7.15;81.09;100109.77;106187;1260;209641;-61
2023/12/30 09:43:29;;;;;;;13.90;10.10;;;;;;;7.13;80.91;100109.56;108220;1257;138393;-61
2023/12/30 09:45:55;;;;;;;9.40;7.30;;;;;;;7.12;80.98;100110.91;105237;1260;60569;-65
2023/12/30 09:48:26;;;;;;;26.40;18.00;;;;;;;7.12;80.94;100115.11;105033;1260;138345;-67
2023/12/30 09:50:53;;;;;;;22.80;15.20;;;;;;;7.14;81.08;100112.89;105204;1260;75044;-63
2023/12/30 09:53:22;;;;;;;13.40;10.80;;;;;;;7.17;81.11;100119.95;109198;1256;66566;-63
2023/12/30 09:55:52;;;;;;;12.80;9.60;;;;;;;7.20;81.05;100120.91;105744;1257;138025;-64
2023/12/30 09:58:20;;;;;;;13.50;9.80;;;;;;;7.19;80.91;100118.08;105176;1260;60505;-64
2023/12/30 10:00:47;;;;;;;12.50;8.20;;;;;;;7.17;80.90;100122.58;109076;1257;138395;-65
2023/12/30 10:03:14;;;;;;;21.10;14.30;;;;;;;7.17;80.99;100122.58;109159;1256;73844;-64
2023/12/30 10:05:41;;;;;;;15.20;10.70;;;;;;;7.22;80.98;100122.17;109121;1260;67242;-65
2023/12/30 10:08:08;;;;;;;15.60;10.30;;;;;;;7.27;80.97;100121.95;108907;1256;138529;-65
2023/12/30 10:10:49;;;;;;;10.20;7.20;;;;;;;7.27;80.61;100119.71;106147;1261;60608;-66
2023/12/30 10:13:17;;;;;;;5.10;3.40;;;;;;;7.23;80.22;100121.52;107253;1258;138427;-67
2023/12/30 10:15:44;;;;;;;5.10;2.60;;;;;;;7.19;80.09;100122.80;109196;1257;73304;-63
2023/12/30 10:18:13;;;;;;;3.20;1.90;;;;;;;7.22;80.18;100124.46;105428;1257;138671;-64
2023/12/30 10:20:41;;;;;;;3.20;2.00;;;;;;;7.31;80.20;100119.83;105187;1259;73458;-63
2023/12/30 10:23:08;;;;;;;3.60;1.80;;;;;;;7.38;79.95;100113.38;105178;1258;60460;-64
2023/12/30 10:25:35;;;;;;;2.40;1.90;;;;;;;7.41;79.95;100119.23;105150;1260;137497;-63
2023/12/30 10:28:02;;;;;;;2.30;1.70;;;;;;;7.53;80.05;100120.42;105209;1260;74792;-63
2023/12/30 10:30:30;;;;;;;2.40;1.30;;;;;;;7.67;79.99;100121.30;105102;1260;138030;-62
2023/12/30 10:33:07;;;;;;;3.70;1.90;;;;;;;7.78;79.79;100129.98;105006;1260;73326;-63
2023/12/30 10:35:34;;;;;;;3.40;1.60;;;;;;;7.95;79.83;100140.38;104937;1258;60539;-63
2023/12/30 10:38:04;;;;;;;2.60;1.60;;;;;;;8.11;79.69;100144.29;105126;1256;139110;-63
2023/12/30 10:40:31;;;;;;;3.00;1.60;;;;;;;8.22;79.40;100155.73;104942;1262;71826;-62
2023/12/30 10:42:58;;;;;;;3.10;1.40;;;;;;;8.25;79.11;100157.91;108867;1255;137702;-62
2023/12/30 10:45:24;;;;;;;2.80;1.60;;;;;;;8.27;78.85;100168.62;109019;1256;71401;-62
2023/12/30 10:47:51;;;;;;;2.60;1.40;;;;;;;8.31;78.80;100175.72;109193;1256;58500;-66
2023/12/30 10:50:18;;;;;;;2.90;1.60;;;;;;;8.34;78.63;100178.42;108880;1258;137741;-62
2023/12/30 10:52:49;;;;;;;3.30;1.60;;;;;;;8.32;78.51;100181.52;109229;1256;73021;-62
2023/12/30 10:55:17;;;;;;;3.70;2.10;;;;;;;8.27;78.36;100185.91;108121;1257;137451;-62
2023/12/30 10:57:48;;;;;;;1.90;1.50;;;;;;;8.19;78.20;100187.30;108929;1257;73107;-62
2023/12/30 11:00:18;;;;;;;3.00;1.90;;;;;;;8.08;78.11;100196.46;105380;1257;139027;-62
2023/12/30 11:02:46;;;;;;;3.50;2.00;;;;;;;7.93;78.06;100199.39;109119;1254;59226;-63
2023/12/30 11:05:25;;;;;;;2.90;2.00;;;;;;;7.85;78.13;100201.61;109115;1256;73930;-65
2023/12/30 11:07:51;;;;;;;4.50;2.40;;;;;;;7.79;78.04;100210.88;109073;1256;139170;-65
2023/12/30 11:10:21;;;;;;;3.80;2.00;;;;;;;7.71;77.72;100220.09;108989;1257;72320;-62
2023/12/30 11:12:49;;;;;;;5.90;2.70;;;;;;;7.67;77.86;100222.95;108911;1255;138134;-63
2023/12/30 11:15:28;;;;;;;7.60;3.50;;;;;;;7.68;78.03;100221.06;108987;1255;59343;-63
2023/12/30 11:17:58;;;;;;;5.00;2.30;;;;;;;7.69;77.97;100221.61;109149;1257;73763;-61
2023/12/30 11:20:32;;;;;;;7.70;3.30;;;;;;;7.66;77.63;100220.33;109011;1255;138298;-63
2023/12/30 11:23:00;;;;;;;6.40;2.90;;;;;;;7.58;77.45;100219.39;105184;1258;73665;-63
2023/12/30 11:25:43;;;;;;;10.60;2.20;;;;;;;7.49;77.28;100225.95;107777;1258;139578;-61